Terminal Aerodrome Forecast
Issued by NWS

Home | Current Version | Previous Version | Text Only | Print | Product List | Glossary On
Versions: 1 2 3 4 5 6 7 8 9 10 11 12 13 14 15 16 17 18 19
000
FTUS43 KAPX 300409 AAA
TAFAPN
TAF AMD
KAPN 300409Z 3004/3024 31014G23KT 6SM -SHSN SCT018 OVC025
      TEMPO 3004/3008 2SM -SHSN BLSN BKN018
     FM301400 33011G20KT P6SM SCT030=

USA.gov is the U.S. government's official web portal to all federal, state and local government web resources and services.